< < Back
Terminal Aerodrome Forecast


Current Version              Previous Versions:   1  2  3  4  5  6  7  8  9  

Terminal Aerodrome Forecast

881
FTUS42 KFFC 272117 AAA
TAFCSG
TAF AMD
KCSG 272117Z 2721/2818 32010G20KT P6SM FEW070
     FM272300 32010KT P6SM BKN070
     FM280500 32008KT P6SM BKN050
     FM280900 32006KT P6SM FEW050
     FM281500 32008KT P6SM SCT250=

Latest METAR

478
SAUS70 KWBC 280900
MTRCSG
METAR KCSG 280851Z AUTO 32008KT 10SM CLR 04/00 A3008 RMK AO2 SLP186
T00440000 53007


USA.gov is the U.S. government's official web portal to all federal, state and local government web resources and services.